Time;durP1;ratioP1;P1;durP2;ratioP2;P2;SDS_P1;SDS_P2;PMS_P1;PMS_P2;Temp;Humidity;BMP_temperature;BMP_pressure;BME280_temperature;BME280_humidity;BME280_pressure;Samples;Min_cycle;Max_cycle;Signal;HPM_P1;HPM_P2
2022/05/14 00:00:26;;;;;;;0.40;0.40;;;14.90;99.90;;;;;;5090901;28;20394;-70
2022/05/14 00:02:52;;;;;;;0.40;0.30;;;14.80;99.90;;;;;;5090983;28;20390;-70
2022/05/14 00:05:19;;;;;;;0.40;0.30;;;14.70;99.90;;;;;;5090607;28;20397;-70
2022/05/14 00:07:46;;;;;;;0.40;0.20;;;14.70;99.90;;;;;;5089975;28;20460;-70
2022/05/14 00:10:11;;;;;;;0.40;0.30;;;14.70;99.90;;;;;;5091229;28;20766;-70
2022/05/14 00:15:22;;;;;;;0.45;0.35;;;14.60;99.90;;;;;;5089641;28;20388;-67
2022/05/14 00:17:48;;;;;;;0.40;0.20;;;14.50;99.90;;;;;;5089702;28;20393;-68
2022/05/14 00:20:15;;;;;;;0.40;0.20;;;14.50;99.90;;;;;;5090757;28;20386;-68
2022/05/14 00:22:41;;;;;;;0.40;0.40;;;14.40;99.90;;;;;;5089864;28;20498;-68
2022/05/14 00:25:08;;;;;;;0.40;0.30;;;14.30;99.90;;;;;;5090513;28;20467;-67
2022/05/14 00:27:33;;;;;;;0.60;0.60;;;14.30;99.90;;;;;;5089783;28;20485;-67
2022/05/14 00:30:00;;;;;;;0.40;0.30;;;14.30;99.90;;;;;;5090194;28;20859;-67
2022/05/14 00:32:26;;;;;;;0.40;0.40;;;14.30;99.90;;;;;;5090230;28;20473;-68
2022/05/14 00:34:51;;;;;;;0.40;0.20;;;14.20;99.90;;;;;;5089565;28;20469;-67
2022/05/14 00:37:17;;;;;;;0.40;0.27;;;14.20;99.90;;;;;;5090664;28;20751;-67
2022/05/14 00:39:43;;;;;;;0.83;0.83;;;14.20;99.90;;;;;;5088497;28;20398;-67
2022/05/14 00:42:10;;;;;;;0.40;0.30;;;14.20;99.90;;;;;;5089900;28;20393;-68
2022/05/14 00:44:35;;;;;;;0.40;0.20;;;14.30;99.90;;;;;;5088467;28;20476;-68
2022/05/14 00:47:04;;;;;;;0.52;0.52;;;14.30;99.90;;;;;;5090218;28;20941;-68
2022/05/14 00:49:33;;;;;;;0.40;0.20;;;14.20;99.90;;;;;;5089173;28;20467;-68
2022/05/14 00:52:00;;;;;;;0.40;0.20;;;14.20;99.90;;;;;;5090016;28;20616;-68
2022/05/14 00:54:36;;;;;;;0.40;0.20;;;14.10;99.90;;;;;;5090824;28;20386;-69
2022/05/14 00:57:07;;;;;;;0.60;0.60;;;14.10;99.90;;;;;;5090387;28;20439;-69
2022/05/14 00:59:33;;;;;;;0.40;0.20;;;14.10;99.90;;;;;;5089758;28;20780;-69
2022/05/14 01:01:59;;;;;;;0.40;0.20;;;14.00;99.90;;;;;;5090419;28;20528;-68
2022/05/14 01:04:26;;;;;;;1.40;1.00;;;13.90;99.90;;;;;;5090079;28;20746;-68
2022/05/14 01:07:01;;;;;;;0.40;0.20;;;13.90;99.90;;;;;;5089410;28;20379;-68
2022/05/14 01:09:27;;;;;;;0.40;0.20;;;14.00;99.90;;;;;;5070526;28;20473;-68
2022/05/14 01:11:54;;;;;;;0.40;0.30;;;14.00;99.90;;;;;;5083996;28;20440;-68
2022/05/14 01:14:20;;;;;;;0.40;0.30;;;14.10;99.90;;;;;;5089890;28;20434;-68
2022/05/14 01:16:46;;;;;;;0.50;0.50;;;13.90;99.90;;;;;;5089225;28;20742;-69
2022/05/14 01:19:12;;;;;;;0.40;0.20;;;13.80;99.90;;;;;;5089189;28;20390;-69
2022/05/14 01:21:43;;;;;;;0.40;0.20;;;13.80;99.90;;;;;;5088918;28;20935;-68
2022/05/14 01:27:08;;;;;;;0.40;0.40;;;13.80;99.90;;;;;;5090448;28;20405;-68
2022/05/14 01:29:34;;;;;;;0.40;0.20;;;13.80;99.90;;;;;;5089365;28;20418;-70
2022/05/14 01:32:00;;;;;;;0.40;0.20;;;13.80;99.90;;;;;;5089688;28;20391;-68
2022/05/14 01:34:33;;;;;;;0.60;0.60;;;13.90;99.90;;;;;;5088604;28;20397;-69
2022/05/14 01:37:00;;;;;;;1.10;0.50;;;13.80;99.90;;;;;;5089519;28;20409;-68
2022/05/14 01:39:26;;;;;;;0.40;0.20;;;13.70;99.90;;;;;;5090030;28;20462;-68
2022/05/14 01:41:52;;;;;;;0.70;0.70;;;13.50;99.90;;;;;;5088405;28;20417;-69
2022/05/14 01:44:19;;;;;;;0.40;0.20;;;13.50;99.90;;;;;;5088710;28;20491;-68
2022/05/14 01:46:45;;;;;;;0.40;0.20;;;13.50;99.90;;;;;;5088851;28;20459;-68
2022/05/14 01:49:11;;;;;;;0.40;0.20;;;13.60;99.90;;;;;;5088417;28;20874;-69
2022/05/14 01:51:38;;;;;;;0.40;0.20;;;13.60;99.90;;;;;;5088759;28;20394;-69
2022/05/14 01:54:03;;;;;;;0.40;0.20;;;13.50;99.90;;;;;;5090331;28;20477;-69
2022/05/14 01:56:29;;;;;;;0.40;0.40;;;13.50;99.90;;;;;;5093033;28;20485;-68
2022/05/14 01:58:55;;;;;;;0.40;0.20;;;13.50;99.90;;;;;;5091680;28;20405;-69
2022/05/14 02:01:24;;;;;;;0.60;0.60;;;13.40;99.90;;;;;;5093161;28;20386;-69
2022/05/14 02:03:56;;;;;;;0.40;0.30;;;13.50;99.90;;;;;;5092709;28;20778;-68
2022/05/14 02:06:22;;;;;;;0.40;0.20;;;13.40;99.90;;;;;;5093410;28;20478;-68
2022/05/14 02:08:49;;;;;;;0.40;0.30;;;13.40;99.90;;;;;;5092166;28;20392;-68
2022/05/14 02:11:15;;;;;;;0.40;0.20;;;13.30;99.90;;;;;;5093357;28;20798;-68
2022/05/14 02:13:41;;;;;;;0.40;0.30;;;13.20;99.90;;;;;;5092447;28;20894;-68
2022/05/14 02:16:07;;;;;;;0.40;0.30;;;13.10;99.90;;;;;;5093416;28;20390;-68
2022/05/14 02:18:32;;;;;;;0.40;0.30;;;13.20;99.90;;;;;;5093222;28;20450;-68
2022/05/14 02:20:58;;;;;;;0.80;0.80;;;13.10;99.90;;;;;;5074079;28;20422;-69
2022/05/14 02:23:24;;;;;;;0.40;0.40;;;13.10;99.90;;;;;;5093530;28;20921;-68
2022/05/14 02:25:49;;;;;;;0.40;0.30;;;13.10;99.90;;;;;;5091650;28;20878;-68
2022/05/14 02:28:16;;;;;;;0.40;0.20;;;13.10;99.90;;;;;;5092044;28;20473;-68
2022/05/14 02:30:42;;;;;;;0.40;0.20;;;13.10;99.90;;;;;;5092005;28;20417;-69
2022/05/14 02:33:08;;;;;;;0.40;0.30;;;13.20;99.90;;;;;;5092765;28;20746;-68
2022/05/14 02:35:34;;;;;;;0.40;0.30;;;13.20;99.90;;;;;;5092890;28;20746;-68
2022/05/14 02:38:00;;;;;;;0.40;0.30;;;13.10;99.90;;;;;;5092787;28;20374;-68
2022/05/14 02:40:25;;;;;;;0.40;0.40;;;13.00;99.90;;;;;;5093213;28;20390;-68
2022/05/14 02:42:52;;;;;;;0.40;0.20;;;12.90;99.90;;;;;;5091650;28;20925;-68
2022/05/14 02:45:18;;;;;;;0.40;0.30;;;13.00;99.90;;;;;;5092846;28;20420;-68
2022/05/14 02:47:44;;;;;;;0.40;0.40;;;12.90;99.90;;;;;;5092018;28;20397;-69
2022/05/14 02:50:11;;;;;;;1.00;0.80;;;12.90;99.90;;;;;;5074239;28;20434;-68
2022/05/14 02:52:37;;;;;;;0.40;0.20;;;12.90;99.90;;;;;;5092034;28;20378;-69
2022/05/14 02:55:04;;;;;;;0.40;0.30;;;12.80;99.90;;;;;;5092975;28;20374;-68
2022/05/14 02:57:30;;;;;;;0.40;0.28;;;12.80;99.90;;;;;;5092576;28;20397;-68
2022/05/14 02:59:55;;;;;;;0.80;0.80;;;13.00;99.90;;;;;;5091715;28;20674;-68
2022/05/14 03:02:21;;;;;;;0.40;0.30;;;13.00;99.90;;;;;;5092559;28;20423;-69
2022/05/14 03:04:48;;;;;;;0.40;0.20;;;13.00;99.90;;;;;;5091652;28;20425;-68
2022/05/14 03:07:17;;;;;;;0.50;0.40;;;13.00;99.90;;;;;;5092475;28;20435;-68
2022/05/14 03:09:43;;;;;;;0.40;0.20;;;13.00;99.90;;;;;;5091816;28;20429;-69
2022/05/14 03:12:12;;;;;;;0.70;0.70;;;12.80;99.90;;;;;;5092452;28;20386;-68
2022/05/14 03:14:38;;;;;;;0.40;0.20;;;12.80;99.90;;;;;;5091931;28;20392;-68
2022/05/14 03:17:05;;;;;;;0.40;0.30;;;12.80;99.90;;;;;;5091667;28;20398;-68
2022/05/14 03:19:31;;;;;;;0.40;0.30;;;12.70;99.90;;;;;;5092125;28;20390;-68
2022/05/14 03:21:56;;;;;;;0.40;0.40;;;12.80;99.90;;;;;;5090848;28;20435;-68
2022/05/14 03:24:23;;;;;;;0.40;0.30;;;12.80;99.90;;;;;;5092375;28;20367;-68
2022/05/14 03:26:49;;;;;;;0.40;0.20;;;12.90;99.90;;;;;;5090986;28;20386;-68
2022/05/14 03:29:15;;;;;;;1.13;1.03;;;12.90;99.90;;;;;;5091711;28;20947;-69
2022/05/14 03:31:41;;;;;;;0.40;0.20;;;12.90;99.90;;;;;;5091298;28;20394;-69
2022/05/14 03:34:10;;;;;;;0.40;0.40;;;12.90;99.90;;;;;;5092110;28;20397;-69
2022/05/14 03:36:37;;;;;;;0.40;0.20;;;12.90;99.90;;;;;;5074618;28;20828;-68
2022/05/14 03:39:03;;;;;;;0.50;0.40;;;12.90;99.90;;;;;;5091899;28;20374;-69
2022/05/14 03:41:29;;;;;;;0.40;0.30;;;12.80;99.90;;;;;;5091779;28;20387;-69
2022/05/14 03:43:55;;;;;;;0.40;0.30;;;12.80;99.90;;;;;;5091336;28;20405;-69
2022/05/14 03:46:21;;;;;;;0.40;0.20;;;12.80;99.90;;;;;;5091749;28;20899;-68
2022/05/14 03:48:47;;;;;;;0.40;0.20;;;12.70;99.90;;;;;;5090529;28;20469;-68
2022/05/14 03:51:13;;;;;;;0.40;0.30;;;12.60;99.90;;;;;;5091481;28;20475;-69
2022/05/14 03:53:40;;;;;;;0.40;0.20;;;12.60;99.90;;;;;;5091682;28;20382;-69
2022/05/14 03:56:06;;;;;;;0.40;0.20;;;12.50;99.90;;;;;;5091588;28;20389;-69
2022/05/14 03:58:32;;;;;;;0.40;0.20;;;12.50;99.90;;;;;;5091816;28;20378;-69
2022/05/14 04:00:58;;;;;;;0.40;0.20;;;12.50;99.90;;;;;;5090223;28;20797;-68
2022/05/14 04:03:28;;;;;;;0.40;0.30;;;12.50;99.90;;;;;;5090831;28;20366;-68
2022/05/14 04:05:54;;;;;;;0.40;0.30;;;12.60;99.90;;;;;;5090292;28;20394;-68
2022/05/14 04:08:20;;;;;;;0.40;0.30;;;12.60;99.90;;;;;;5090784;28;20866;-69
2022/05/14 04:10:45;;;;;;;0.40;0.20;;;12.50;99.90;;;;;;5090183;28;20416;-69
2022/05/14 04:13:12;;;;;;;0.40;0.20;;;12.50;99.90;;;;;;5091227;28;20402;-69
2022/05/14 04:15:38;;;;;;;0.40;0.20;;;12.50;99.90;;;;;;5091474;28;20401;-69
2022/05/14 04:18:05;;;;;;;0.40;0.20;;;12.60;99.90;;;;;;5089722;28;21277;-69
2022/05/14 04:20:31;;;;;;;0.40;0.30;;;12.60;99.90;;;;;;5091492;28;20493;-69
2022/05/14 04:22:57;;;;;;;1.10;0.50;;;12.60;99.90;;;;;;5089587;28;20469;-69
2022/05/14 04:25:24;;;;;;;0.40;0.20;;;12.60;99.90;;;;;;5091141;28;20402;-69
2022/05/14 04:27:50;;;;;;;0.40;0.20;;;12.60;99.90;;;;;;5064280;28;20395;-68
2022/05/14 04:30:17;;;;;;;0.40;0.20;;;12.70;99.90;;;;;;5088110;28;20513;-68
2022/05/14 04:32:43;;;;;;;0.70;0.70;;;12.70;99.90;;;;;;5090056;28;20801;-68
2022/05/14 04:35:11;;;;;;;0.40;0.20;;;12.70;99.90;;;;;;5091316;28;20377;-68
2022/05/14 04:37:37;;;;;;;0.40;0.38;;;12.80;99.90;;;;;;5090823;28;20878;-68
2022/05/14 04:40:07;;;;;;;0.40;0.20;;;12.80;99.90;;;;;;5090012;28;20455;-68
2022/05/14 04:42:33;;;;;;;0.85;0.77;;;12.90;99.90;;;;;;5090967;28;20394;-69
2022/05/14 04:44:59;;;;;;;0.40;0.20;;;12.90;99.90;;;;;;5090089;28;20401;-68
2022/05/14 04:47:25;;;;;;;0.40;0.20;;;12.90;99.90;;;;;;5090462;28;20396;-69
2022/05/14 04:49:51;;;;;;;0.40;0.30;;;12.90;99.90;;;;;;5089874;28;20417;-69
2022/05/14 04:52:17;;;;;;;0.40;0.40;;;13.00;99.90;;;;;;5090820;28;20386;-69
2022/05/14 04:54:43;;;;;;;0.40;0.20;;;13.00;99.90;;;;;;5090228;28;20394;-69
2022/05/14 04:57:08;;;;;;;0.40;0.30;;;13.00;99.90;;;;;;5072316;28;20831;-68
2022/05/14 04:59:36;;;;;;;0.40;0.20;;;13.10;99.90;;;;;;5090010;28;20394;-67
2022/05/14 05:04:46;;;;;;;0.40;0.30;;;13.20;99.90;;;;;;5084008;28;20892;-68
2022/05/14 05:07:12;;;;;;;0.40;0.30;;;13.30;99.90;;;;;;5071656;28;20406;-69
2022/05/14 05:09:38;;;;;;;0.40;0.30;;;13.30;99.90;;;;;;5089385;28;20482;-68
2022/05/14 05:12:05;;;;;;;0.40;0.20;;;13.40;99.90;;;;;;5089712;28;20386;-68
2022/05/14 05:14:31;;;;;;;0.40;0.20;;;13.50;99.90;;;;;;5090627;28;20425;-68
2022/05/14 05:16:57;;;;;;;0.40;0.20;;;13.70;99.90;;;;;;5089580;28;20809;-68
2022/05/14 05:19:23;;;;;;;0.40;0.20;;;13.70;99.90;;;;;;5090254;28;20766;-68
2022/05/14 05:21:49;;;;;;;0.40;0.30;;;13.70;99.90;;;;;;5090337;28;20375;-68
2022/05/14 05:24:16;;;;;;;0.40;0.20;;;13.80;99.90;;;;;;5089642;28;20385;-68
2022/05/14 05:26:42;;;;;;;0.40;0.20;;;13.80;99.90;;;;;;5089976;28;20448;-68
2022/05/14 05:29:08;;;;;;;0.40;0.20;;;13.90;99.90;;;;;;5091084;28;21004;-69
2022/05/14 05:31:35;;;;;;;0.40;0.20;;;13.80;99.90;;;;;;5094722;28;20386;-68
2022/05/14 05:34:02;;;;;;;0.40;0.20;;;13.80;99.90;;;;;;5093131;28;20439;-68
2022/05/14 05:36:27;;;;;;;0.40;0.20;;;13.70;99.90;;;;;;5094466;28;20386;-68
2022/05/14 05:38:54;;;;;;;0.43;0.25;;;13.80;99.90;;;;;;5093297;28;20382;-69
2022/05/14 05:41:21;;;;;;;0.40;0.30;;;13.90;99.90;;;;;;5074994;28;20886;-68
2022/05/14 05:43:48;;;;;;;0.40;0.30;;;14.00;99.90;;;;;;5093937;28;20404;-68
2022/05/14 05:46:14;;;;;;;0.40;0.20;;;14.30;99.90;;;;;;5093857;28;20491;-68
2022/05/14 05:48:41;;;;;;;0.40;0.20;;;14.30;99.90;;;;;;5094184;28;20378;-68
2022/05/14 05:51:07;;;;;;;0.40;0.30;;;14.40;99.90;;;;;;5091797;28;20417;-68
2022/05/14 05:59:03;;;;;;;0.40;0.20;;;14.70;99.90;;;;;;5092972;28;20397;-70
2022/05/14 06:01:29;;;;;;;0.47;0.47;;;14.70;99.90;;;;;;5093856;28;20480;-70
2022/05/14 06:03:55;;;;;;;0.40;0.20;;;14.80;99.90;;;;;;5093135;28;20519;-69
2022/05/14 06:06:21;;;;;;;0.40;0.28;;;14.80;99.90;;;;;;5093518;28;20366;-69
2022/05/14 06:08:48;;;;;;;0.40;0.20;;;14.80;99.90;;;;;;5093535;28;20390;-69
2022/05/14 06:11:17;;;;;;;0.50;0.50;;;14.90;99.90;;;;;;5092908;28;20418;-69
2022/05/14 06:13:43;;;;;;;0.40;0.38;;;15.00;99.90;;;;;;5093643;28;20570;-69
2022/05/14 06:16:10;;;;;;;0.40;0.30;;;15.00;99.90;;;;;;5092324;28;20469;-69
2022/05/14 06:18:37;;;;;;;0.40;0.20;;;15.20;99.90;;;;;;5093407;28;20394;-68
2022/05/14 06:21:06;;;;;;;0.40;0.20;;;15.30;99.90;;;;;;5092818;28;20420;-69
2022/05/14 06:23:33;;;;;;;0.40;0.30;;;15.40;99.90;;;;;;5094008;28;20734;-68
2022/05/14 06:25:59;;;;;;;0.40;0.20;;;15.60;99.90;;;;;;5091771;28;20394;-69
2022/05/14 06:28:25;;;;;;;0.40;0.30;;;15.70;99.90;;;;;;5092248;28;20429;-69
2022/05/14 06:30:51;;;;;;;0.40;0.20;;;15.80;99.90;;;;;;5092687;28;20445;-70
2022/05/14 06:33:17;;;;;;;0.40;0.20;;;15.90;99.90;;;;;;5092461;28;20429;-69
2022/05/14 06:35:44;;;;;;;0.50;0.50;;;15.90;99.90;;;;;;5092842;28;20417;-69
2022/05/14 06:38:10;;;;;;;0.40;0.20;;;16.10;99.90;;;;;;5092327;28;20471;-69
2022/05/14 06:40:36;;;;;;;0.70;0.40;;;16.10;99.90;;;;;;5085677;28;20815;-69
2022/05/14 06:43:03;;;;;;;0.40;0.30;;;16.20;99.90;;;;;;5080674;28;20448;-69
2022/05/14 06:45:29;;;;;;;0.40;0.22;;;16.20;99.90;;;;;;5092946;28;20402;-69
2022/05/14 06:47:55;;;;;;;0.40;0.40;;;16.10;99.90;;;;;;5092198;28;20715;-69
2022/05/14 06:50:22;;;;;;;0.40;0.20;;;16.10;99.90;;;;;;5092056;28;20432;-69
2022/05/14 06:52:52;;;;;;;0.40;0.40;;;16.10;99.90;;;;;;5092698;28;20382;-69
2022/05/14 06:55:22;;;;;;;0.63;0.60;;;16.10;99.90;;;;;;5092447;28;20409;-69
2022/05/14 06:57:50;;;;;;;0.40;0.40;;;16.00;99.90;;;;;;5092797;28;20454;-69
2022/05/14 07:00:16;;;;;;;1.00;0.60;;;16.00;99.90;;;;;;5092395;28;20373;-69
2022/05/14 07:02:43;;;;;;;0.80;0.80;;;16.10;99.90;;;;;;5092890;28;20409;-69
2022/05/14 07:07:54;;;;;;;0.40;0.20;;;16.20;99.90;;;;;;5075340;28;20443;-70
2022/05/14 07:10:20;;;;;;;0.40;0.20;;;16.20;99.90;;;;;;5091751;28;20414;-69
2022/05/14 07:12:46;;;;;;;0.40;0.20;;;16.40;99.90;;;;;;5092268;28;20394;-69
2022/05/14 07:15:12;;;;;;;0.40;0.20;;;16.50;99.90;;;;;;5091963;28;20461;-70
2022/05/14 07:17:38;;;;;;;1.00;1.00;;;16.50;99.90;;;;;;5092762;28;20453;-69
2022/05/14 07:20:06;;;;;;;0.40;0.20;;;16.60;99.90;;;;;;5091183;28;20401;-69
2022/05/14 07:22:32;;;;;;;0.40;0.30;;;16.60;99.90;;;;;;5091738;28;20399;-70
2022/05/14 07:24:58;;;;;;;0.40;0.30;;;16.70;99.90;;;;;;5091539;28;20390;-69
2022/05/14 07:27:24;;;;;;;0.60;0.50;;;16.70;99.90;;;;;;5092131;28;20390;-69
2022/05/14 07:29:50;;;;;;;0.40;0.20;;;16.70;99.90;;;;;;5091949;28;20857;-70
2022/05/14 07:32:18;;;;;;;0.70;0.60;;;16.60;99.90;;;;;;5090134;28;20397;-69
2022/05/14 07:34:44;;;;;;;0.40;0.20;;;16.60;99.90;;;;;;5090975;28;20405;-69
2022/05/14 07:37:19;;;;;;;0.40;0.20;;;16.70;99.90;;;;;;5091138;28;20411;-69
2022/05/14 07:39:50;;;;;;;0.40;0.20;;;16.90;99.90;;;;;;5092386;28;20378;-69
2022/05/14 07:42:35;;;;;;;0.40;0.20;;;16.90;99.90;;;;;;5091182;28;20398;-69
2022/05/14 07:45:04;;;;;;;0.40;0.20;;;16.80;99.90;;;;;;5090307;28;20433;-71
2022/05/14 07:47:31;;;;;;;0.50;0.40;;;16.60;99.90;;;;;;5071724;28;20387;-68
2022/05/14 07:49:57;;;;;;;0.40;0.20;;;16.70;99.90;;;;;;5089339;28;20410;-69
2022/05/14 07:52:24;;;;;;;0.40;0.40;;;16.80;99.90;;;;;;5091286;28;20415;-69
2022/05/14 07:54:50;;;;;;;0.40;0.20;;;16.80;99.90;;;;;;5090265;28;20394;-69
2022/05/14 07:57:18;;;;;;;0.40;0.20;;;16.90;99.90;;;;;;5077187;28;20427;-69
2022/05/14 07:59:45;;;;;;;0.63;0.60;;;17.00;99.90;;;;;;5083775;28;20395;-69
2022/05/14 08:02:23;;;;;;;0.40;0.20;;;16.80;99.90;;;;;;5075111;28;20426;-69
2022/05/14 08:04:49;;;;;;;0.40;0.40;;;16.90;99.90;;;;;;5082969;28;20386;-68
2022/05/14 08:07:15;;;;;;;1.00;0.60;;;17.00;99.90;;;;;;5080886;28;21196;-69
2022/05/14 08:09:41;;;;;;;0.40;0.20;;;17.00;99.90;;;;;;5083766;28;20528;-68
2022/05/14 08:12:07;;;;;;;0.40;0.20;;;17.10;99.90;;;;;;5080564;28;20483;-69
2022/05/14 08:14:33;;;;;;;0.40;0.20;;;17.00;99.90;;;;;;5089594;28;20390;-69
2022/05/14 08:16:59;;;;;;;0.40;0.20;;;17.00;99.90;;;;;;5079122;28;20470;-70
2022/05/14 08:19:25;;;;;;;0.40;0.20;;;17.10;99.90;;;;;;5084136;28;20833;-68
2022/05/14 08:24:36;;;;;;;0.40;0.30;;;17.50;99.90;;;;;;5073263;28;20913;-68
2022/05/14 08:27:04;;;;;;;0.40;0.30;;;17.60;99.90;;;;;;5080856;28;20398;-69
2022/05/14 08:29:31;;;;;;;0.40;0.20;;;17.60;99.90;;;;;;5081752;28;20500;-68
2022/05/14 08:31:56;;;;;;;2.30;2.20;;;17.50;99.90;;;;;;5083898;28;20390;-71
2022/05/14 08:34:22;;;;;;;0.40;0.20;;;17.40;99.90;;;;;;5089930;28;20447;-69
2022/05/14 08:36:48;;;;;;;0.40;0.20;;;17.60;99.90;;;;;;5089167;28;20414;-68
2022/05/14 08:39:15;;;;;;;0.40;0.30;;;17.80;99.70;;;;;;5078427;28;20404;-68
2022/05/14 08:41:44;;;;;;;0.40;0.30;;;17.90;99.30;;;;;;5090654;28;20405;-69
2022/05/14 08:44:21;;;;;;;0.40;0.30;;;17.90;99.90;;;;;;5089591;28;20909;-69
2022/05/14 08:46:55;;;;;;;0.40;0.20;;;18.00;99.90;;;;;;5090508;28;20471;-69
2022/05/14 08:49:35;;;;;;;0.40;0.20;;;18.00;99.00;;;;;;5089253;28;20426;-68
2022/05/14 08:52:06;;;;;;;0.40;0.20;;;18.10;99.90;;;;;;5089447;28;20381;-68
2022/05/14 08:54:33;;;;;;;0.40;0.20;;;18.10;97.50;;;;;;5090710;28;20687;-67
2022/05/14 08:57:15;;;;;;;0.40;0.30;;;18.20;98.60;;;;;;5089300;28;20390;-70
2022/05/14 08:59:59;;;;;;;0.40;0.20;;;18.20;99.70;;;;;;5089872;28;20394;-68
2022/05/14 09:02:43;;;;;;;0.40;0.20;;;18.40;99.60;;;;;;5085806;28;20420;-69
2022/05/14 09:05:11;;;;;;;0.70;0.60;;;18.40;99.90;;;;;;5070841;28;20402;-69
2022/05/14 09:07:37;;;;;;;0.40;0.20;;;18.60;99.90;;;;;;5090438;28;20443;-69
2022/05/14 09:10:17;;;;;;;0.40;0.28;;;18.60;99.90;;;;;;5090002;28;20485;-69
2022/05/14 09:12:52;;;;;;;0.40;0.20;;;18.50;99.20;;;;;;5072812;28;20878;-69
2022/05/14 09:15:19;;;;;;;0.40;0.20;;;18.60;97.70;;;;;;5089476;28;20700;-69
2022/05/14 09:17:44;;;;;;;0.40;0.20;;;18.80;96.10;;;;;;5090070;28;20818;-69
2022/05/14 09:20:23;;;;;;;0.40;0.20;;;18.80;95.80;;;;;;5083008;28;20439;-69
2022/05/14 09:22:54;;;;;;;0.40;0.20;;;18.80;98.60;;;;;;5081633;28;20478;-68
2022/05/14 09:25:34;;;;;;;0.40;0.20;;;18.90;94.10;;;;;;5079683;28;20963;-67
2022/05/14 09:28:07;;;;;;;0.40;0.30;;;19.00;94.50;;;;;;5078158;28;20808;-67
2022/05/14 09:30:42;;;;;;;0.40;0.20;;;19.10;93.80;;;;;;5079101;28;20796;-67
2022/05/14 09:33:21;;;;;;;0.40;0.25;;;19.20;93.50;;;;;;5087306;28;20417;-68
2022/05/14 09:35:55;;;;;;;0.40;0.40;;;19.30;92.40;;;;;;5087251;28;20413;-67
2022/05/14 09:38:23;;;;;;;0.70;0.70;;;19.30;92.70;;;;;;5088170;28;21094;-67
2022/05/14 09:40:49;;;;;;;0.40;0.20;;;19.30;93.10;;;;;;5089862;28;20488;-68
2022/05/14 09:43:15;;;;;;;0.40;0.40;;;19.30;92.30;;;;;;5086024;28;20417;-67
2022/05/14 09:45:44;;;;;;;0.40;0.20;;;19.50;92.70;;;;;;5081043;28;20390;-67
2022/05/14 09:48:10;;;;;;;0.40;0.20;;;19.50;94.50;;;;;;5087610;28;20398;-68
2022/05/14 09:50:36;;;;;;;0.45;0.40;;;19.60;92.90;;;;;;5090135;28;20411;-67
2022/05/14 09:53:04;;;;;;;0.40;0.20;;;19.60;93.00;;;;;;5085535;28;20443;-68
2022/05/14 09:56:16;;;;;;;0.40;0.20;;;19.60;91.40;;;;;;5082337;28;20428;-67
2022/05/14 09:58:54;;;;;;;0.40;0.20;;;19.70;91.80;;;;;;5025554;28;20425;-68
2022/05/14 10:01:28;;;;;;;0.40;0.20;;;19.80;93.40;;;;;;5079130;28;20953;-67
2022/05/14 10:04:26;;;;;;;0.40;0.22;;;20.00;92.60;;;;;;5081462;28;20396;-67
2022/05/14 10:07:07;;;;;;;0.40;0.30;;;20.00;93.90;;;;;;5070375;28;20450;-68
2022/05/14 10:10:06;;;;;;;0.40;0.30;;;19.90;95.40;;;;;;5083218;28;20428;-68
2022/05/14 10:12:38;;;;;;;0.40;0.20;;;20.10;95.10;;;;;;5089798;28;20463;-68
2022/05/14 10:15:30;;;;;;;0.70;0.70;;;20.20;93.50;;;;;;5089830;28;20394;-68
2022/05/14 10:18:12;;;;;;;0.40;0.20;;;20.30;94.30;;;;;;5073599;28;20411;-67
2022/05/14 10:21:12;;;;;;;0.55;0.55;;;20.50;94.70;;;;;;5092418;28;20885;-67
2022/05/14 10:27:11;;;;;;;0.40;0.20;;;20.60;94.00;;;;;;5093274;28;20432;-67
2022/05/14 10:30:02;;;;;;;1.50;0.50;;;20.70;94.80;;;;;;5093506;28;20886;-68
2022/05/14 10:32:32;;;;;;;0.40;0.20;;;20.70;94.30;;;;;;5092512;28;20406;-68
2022/05/14 10:35:08;;;;;;;0.40;0.30;;;20.50;93.40;;;;;;5093344;28;20394;-68
2022/05/14 10:37:43;;;;;;;0.40;0.20;;;20.60;93.90;;;;;;5093204;28;20394;-68
2022/05/14 10:40:14;;;;;;;0.40;0.40;;;20.60;92.90;;;;;;5092435;28;20394;-68
2022/05/14 10:42:52;;;;;;;0.60;0.60;;;20.80;92.70;;;;;;5093128;28;20860;-66
2022/05/14 10:45:23;;;;;;;0.60;0.60;;;21.00;92.80;;;;;;5092043;28;20872;-67
2022/05/14 10:48:01;;;;;;;0.50;0.50;;;20.90;92.10;;;;;;5092594;28;20908;-66
2022/05/14 10:50:31;;;;;;;0.40;0.20;;;21.10;91.90;;;;;;5092178;28;20410;-65
2022/05/14 10:52:58;;;;;;;0.40;0.35;;;21.20;91.80;;;;;;5072940;28;20379;-66
2022/05/14 10:55:26;;;;;;;0.40;0.40;;;21.10;91.60;;;;;;5085972;28;20401;-66
2022/05/14 10:58:01;;;;;;;0.40;0.20;;;21.10;90.90;;;;;;5092677;28;20390;-68
2022/05/14 11:00:30;;;;;;;0.40;0.20;;;21.30;91.40;;;;;;5092396;28;20370;-67
2022/05/14 11:03:10;;;;;;;0.40;0.20;;;21.50;90.90;;;;;;5092638;28;20398;-69
2022/05/14 11:06:02;;;;;;;0.40;0.20;;;21.60;91.90;;;;;;5092499;28;20397;-68
2022/05/14 11:08:46;;;;;;;0.40;0.30;;;21.90;91.30;;;;;;5078357;28;21231;-68
2022/05/14 11:11:20;;;;;;;0.40;0.20;;;21.80;90.30;;;;;;5090896;28;20832;-68
2022/05/14 11:14:03;;;;;;;0.40;0.30;;;21.60;92.20;;;;;;5068279;28;20409;-68
2022/05/14 11:16:41;;;;;;;0.40;0.20;;;22.20;87.80;;;;;;5090484;28;20460;-69
2022/05/14 11:19:08;;;;;;;0.40;0.20;;;22.30;87.10;;;;;;5090131;28;20406;-67
2022/05/14 11:21:46;;;;;;;0.40;0.20;;;22.50;85.50;;;;;;5090984;28;20445;-67
2022/05/14 11:24:17;;;;;;;0.40;0.30;;;22.40;84.20;;;;;;5090211;28;20400;-66
2022/05/14 11:26:48;;;;;;;0.40;0.20;;;22.40;83.20;;;;;;5073837;28;20811;-67
2022/05/14 11:29:20;;;;;;;0.40;0.20;;;22.40;89.60;;;;;;5073394;28;20889;-67
2022/05/14 11:32:15;;;;;;;0.40;0.30;;;23.20;83.90;;;;;;5092610;28;20420;-68
2022/05/14 11:34:52;;;;;;;0.47;0.30;;;23.80;85.80;;;;;;5088148;28;20397;-67
2022/05/14 11:37:27;;;;;;;0.40;0.20;;;24.00;78.70;;;;;;5089941;28;20386;-68
2022/05/14 11:40:13;;;;;;;0.40;0.30;;;24.50;78.70;;;;;;5091451;28;20466;-68
2022/05/14 11:42:39;;;;;;;0.40;0.20;;;25.70;71.70;;;;;;5091600;28;20398;-66
2022/05/14 11:45:21;;;;;;;0.40;0.20;;;25.70;69.80;;;;;;5092197;28;20421;-67
2022/05/14 11:48:08;;;;;;;0.40;0.20;;;25.30;73.20;;;;;;5091036;28;20488;-69
2022/05/14 11:51:05;;;;;;;0.40;0.20;;;25.80;75.30;;;;;;5088550;28;20417;-68
2022/05/14 11:53:49;;;;;;;0.40;0.20;;;24.60;72.00;;;;;;5090906;28;21267;-67
2022/05/14 11:56:37;;;;;;;0.40;0.30;;;25.50;67.20;;;;;;5080869;28;20454;-68
2022/05/14 11:59:22;;;;;;;0.40;0.30;;;26.50;67.60;;;;;;5070821;28;20387;-69
2022/05/14 12:01:50;;;;;;;0.40;0.20;;;25.60;67.00;;;;;;5071332;28;20379;-70
2022/05/14 12:04:28;;;;;;;0.40;0.20;;;26.10;67.10;;;;;;5077637;28;20394;-70
2022/05/14 12:07:18;;;;;;;0.40;0.20;;;26.40;72.40;;;;;;5091475;28;20446;-71
2022/05/14 12:09:51;;;;;;;0.40;0.20;;;26.80;66.40;;;;;;5043133;28;20410;-70
2022/05/14 12:12:40;;;;;;;0.40;0.20;;;25.70;67.70;;;;;;5090708;28;20904;-69
2022/05/14 12:15:12;;;;;;;0.40;0.20;;;26.90;62.10;;;;;;5064920;28;20824;-69
2022/05/14 12:17:38;;;;;;;0.40;0.20;;;27.90;60.00;;;;;;5077232;28;20390;-70
2022/05/14 12:20:04;;;;;;;0.40;0.20;;;28.00;62.80;;;;;;5087359;28;20394;-70
2022/05/14 12:22:30;;;;;;;0.40;0.20;;;27.00;61.70;;;;;;5088400;28;20378;-71
2022/05/14 12:24:56;;;;;;;0.40;0.20;;;26.40;65.10;;;;;;5090711;28;20439;-71
2022/05/14 12:27:23;;;;;;;0.40;0.20;;;26.20;66.90;;;;;;5080080;28;20397;-71
2022/05/14 12:30:05;;;;;;;0.40;0.20;;;26.30;69.80;;;;;;5082557;28;20800;-71
2022/05/14 12:35:15;;;;;;;0.40;0.20;;;27.70;60.50;;;;;;5086713;28;20382;-71
2022/05/14 12:37:42;;;;;;;0.60;0.40;;;28.10;60.80;;;;;;5080129;28;20398;-70
2022/05/14 12:40:18;;;;;;;0.40;0.20;;;27.90;60.80;;;;;;5080329;28;20933;-70
2022/05/14 12:42:44;;;;;;;0.40;0.20;;;26.10;58.90;;;;;;5081852;28;20510;-71
2022/05/14 12:45:11;;;;;;;0.40;0.20;;;26.00;65.20;;;;;;5088360;28;20955;-70
2022/05/14 12:47:38;;;;;;;0.40;0.30;;;26.30;65.80;;;;;;5078592;28;20386;-71
2022/05/14 12:50:20;;;;;;;0.40;0.30;;;25.90;63.00;;;;;;5086942;28;20437;-70
2022/05/14 12:52:57;;;;;;;0.40;0.30;;;25.60;64.20;;;;;;5083086;28;20391;-70
2022/05/14 12:55:25;;;;;;;0.40;0.30;;;25.50;63.40;;;;;;5085602;28;20488;-70
2022/05/14 12:57:52;;;;;;;0.90;0.60;;;26.00;63.50;;;;;;5083284;28;20394;-71
2022/05/14 13:00:20;;;;;;;0.40;0.30;;;25.00;67.80;;;;;;5084489;28;20442;-70
2022/05/14 13:02:55;;;;;;;0.40;0.30;;;25.30;66.50;;;;;;5085708;28;20386;-71
2022/05/14 13:05:29;;;;;;;0.40;0.20;;;25.60;69.50;;;;;;5081057;28;20451;-71
2022/05/14 13:08:14;;;;;;;0.60;0.40;;;25.80;65.60;;;;;;5083121;28;20413;-70
2022/05/14 13:10:48;;;;;;;0.40;0.20;;;26.40;71.30;;;;;;5086434;28;20413;-70
2022/05/14 13:13:16;;;;;;;0.40;0.20;;;26.00;66.90;;;;;;5082317;28;20871;-71
2022/05/14 13:15:44;;;;;;;0.40;0.20;;;26.70;64.30;;;;;;5084128;28;20483;-70
2022/05/14 13:18:32;;;;;;;0.40;0.20;;;25.60;62.50;;;;;;5087776;28;20762;-71
2022/05/14 13:21:25;;;;;;;0.55;0.38;;;25.40;66.50;;;;;;5087810;28;20418;-70
2022/05/14 13:24:24;;;;;;;0.40;0.20;;;25.40;70.10;;;;;;5080057;28;20487;-71
2022/05/14 13:26:51;;;;;;;0.40;0.20;;;25.80;69.90;;;;;;5085551;28;20385;-71